Time;durP1;ratioP1;P1;durP2;ratioP2;P2;SDS_P1;SDS_P2;PMS_P1;PMS_P2;Temp;Humidity;BMP_temperature;BMP_pressure;BME280_temperature;BME280_humidity;BME280_pressure;Samples;Min_cycle;Max_cycle;Signal;HPM_P1;HPM_P2
2022/01/29 00:01:32;;;;;;;12.52;4.72;;;;;;;1.58;82.31;99878.78;4174180;28;20072;-71
2022/01/29 00:03:35;;;;;;;10.50;5.20;;;;;;;1.59;82.38;99880.41;4174636;28;20045;-71
2022/01/29 00:05:36;;;;;;;9.32;4.72;;;;;;;1.57;82.91;99877.16;4174388;28;20056;-71
2022/01/29 00:07:41;;;;;;;11.98;5.00;;;;;;;1.48;83.07;99862.47;4173558;28;20059;-71
2022/01/29 00:09:44;;;;;;;12.05;4.72;;;;;;;1.50;83.08;99859.50;4173983;28;20041;-71
2022/01/29 00:11:44;;;;;;;6.00;4.47;;;;;;;1.54;82.74;99855.88;4173739;28;20298;-71
2022/01/29 00:13:45;;;;;;;10.68;5.03;;;;;;;1.53;83.21;99858.91;4174296;28;20068;-71
2022/01/29 00:15:45;;;;;;;10.07;4.60;;;;;;;1.57;82.87;99851.75;4174527;28;20057;-71
2022/01/29 00:17:46;;;;;;;13.02;4.80;;;;;;;1.56;83.18;99853.69;4173742;28;20064;-71
2022/01/29 00:19:46;;;;;;;12.00;4.57;;;;;;;1.55;82.83;99849.34;4174471;28;20575;-71
2022/01/29 00:21:46;;;;;;;10.35;4.78;;;;;;;1.53;83.46;99846.09;4173833;28;20489;-72
2022/01/29 00:23:47;;;;;;;10.90;4.53;;;;;;;1.53;83.37;99848.00;4174044;28;20036;-71
2022/01/29 00:25:47;;;;;;;7.25;4.35;;;;;;;1.63;82.38;99848.72;4173665;28;20041;-71
2022/01/29 00:27:47;;;;;;;9.32;4.10;;;;;;;1.61;82.82;99850.94;4173093;28;20037;-71
2022/01/29 00:29:48;;;;;;;11.30;4.20;;;;;;;1.63;82.58;99848.72;4173830;28;20440;-71
2022/01/29 00:31:48;;;;;;;5.90;3.95;;;;;;;1.58;82.92;99843.31;4173886;28;20041;-71
2022/01/29 00:33:49;;;;;;;15.40;4.80;;;;;;;1.56;82.62;99845.50;4174267;28;20051;-71
2022/01/29 00:35:49;;;;;;;13.20;4.20;;;;;;;1.54;83.02;99855.06;4174312;28;20045;-71
2022/01/29 00:37:49;;;;;;;13.40;4.53;;;;;;;1.50;83.76;99840.41;4173000;28;20052;-71
2022/01/29 00:39:49;;;;;;;14.20;4.95;;;;;;;1.51;83.62;99829.19;4173433;28;20873;-71
2022/01/29 00:41:50;;;;;;;11.23;4.13;;;;;;;1.51;83.45;99822.94;4174021;28;20155;-71
2022/01/29 00:43:50;;;;;;;9.75;4.53;;;;;;;1.48;83.86;99813.38;4173656;28;20037;-71
2022/01/29 00:45:50;;;;;;;9.27;4.22;;;;;;;1.48;83.86;99807.09;4173668;28;20711;-71
2022/01/29 00:47:51;;;;;;;11.50;4.38;;;;;;;1.46;84.10;99812.03;4173088;28;20044;-71
2022/01/29 00:49:51;;;;;;;10.50;3.90;;;;;;;1.42;84.00;99809.09;4173749;28;20055;-71
2022/01/29 00:51:52;;;;;;;10.05;4.32;;;;;;;1.45;84.38;99813.97;4173654;28;20045;-71
2022/01/29 00:53:52;;;;;;;8.93;4.05;;;;;;;1.44;84.51;99816.97;4173523;28;20156;-71
2022/01/29 00:55:52;;;;;;;8.10;4.68;;;;;;;1.46;84.18;99818.31;4173639;28;20037;-71
2022/01/29 00:57:52;;;;;;;11.73;4.10;;;;;;;1.44;84.38;99809.59;4172786;28;20083;-71
2022/01/29 00:59:53;;;;;;;7.60;4.03;;;;;;;1.56;83.66;99820.13;4173774;28;20548;-71
2022/01/29 01:01:53;;;;;;;11.02;4.97;;;;;;;1.54;83.74;99817.69;4173684;28;20359;-71
2022/01/29 01:03:53;;;;;;;6.32;3.65;;;;;;;1.57;83.81;99816.31;4173773;28;20037;-71
2022/01/29 01:05:54;;;;;;;10.38;4.47;;;;;;;1.61;83.42;99809.19;4173571;28;20049;-71
2022/01/29 01:07:54;;;;;;;11.90;3.95;;;;;;;1.61;84.03;99806.47;4172686;28;20106;-71
2022/01/29 01:09:54;;;;;;;11.70;3.90;;;;;;;1.59;84.01;99808.66;4173609;28;20405;-71
2022/01/29 01:11:54;;;;;;;9.35;3.67;;;;;;;1.57;84.25;99800.78;4173725;28;20056;-71
2022/01/29 01:13:55;;;;;;;10.25;4.28;;;;;;;1.54;84.36;99793.16;4173606;28;20045;-71
2022/01/29 01:15:55;;;;;;;10.95;4.70;;;;;;;1.63;83.84;99788.69;4173865;28;20067;-71
2022/01/29 01:17:56;;;;;;;9.68;3.95;;;;;;;1.57;84.36;99776.22;4172761;28;20472;-72
2022/01/29 01:19:56;;;;;;;9.10;3.90;;;;;;;1.64;84.63;99773.94;4173568;28;20052;-71
2022/01/29 01:21:57;;;;;;;11.50;4.80;;;;;;;1.63;84.87;99760.59;4173400;28;20053;-71
2022/01/29 01:23:57;;;;;;;10.73;4.50;;;;;;;1.67;84.65;99761.66;4176048;28;20330;-71
2022/01/29 01:25:58;;;;;;;10.38;4.78;;;;;;;1.67;84.82;99759.75;4176786;28;20053;-71
2022/01/29 01:27:58;;;;;;;6.90;4.65;;;;;;;1.63;85.13;99753.22;4176237;28;20052;-71
2022/01/29 01:29:59;;;;;;;13.93;5.20;;;;;;;1.61;84.97;99744.53;4176940;28;20173;-71
2022/01/29 01:31:59;;;;;;;13.23;4.97;;;;;;;1.64;85.10;99734.94;4176738;28;20041;-71
2022/01/29 01:34:00;;;;;;;10.98;4.80;;;;;;;1.63;85.45;99738.78;4176644;28;20099;-71
2022/01/29 01:36:04;;;;;;;8.20;4.57;;;;;;;1.60;85.58;99723.81;4176534;28;20048;-71
2022/01/29 01:38:21;;;;;;;9.98;4.40;;;;;;;1.66;85.27;99714.47;4175010;28;20048;-71
2022/01/29 01:40:23;;;;;;;8.68;5.03;;;;;;;1.67;85.79;99705.19;4174760;28;20052;-71
2022/01/29 01:42:23;;;;;;;8.40;4.85;;;;;;;1.73;86.13;99695.00;4176480;28;20080;-71
2022/01/29 01:44:23;;;;;;;8.85;5.20;;;;;;;1.74;86.20;99707.56;4176446;28;20039;-71
2022/01/29 01:46:24;;;;;;;8.43;5.07;;;;;;;1.86;85.50;99707.16;4176596;28;20723;-71
2022/01/29 01:48:24;;;;;;;8.68;5.18;;;;;;;1.88;85.70;99708.47;4175808;28;20053;-71
2022/01/29 01:50:25;;;;;;;10.57;5.50;;;;;;;1.84;86.04;99712.09;4176660;28;20118;-71
2022/01/29 01:52:25;;;;;;;10.35;6.07;;;;;;;1.88;85.99;99710.41;4176186;28;20064;-71
2022/01/29 01:54:26;;;;;;;9.98;5.90;;;;;;;1.84;86.29;99706.66;4176513;28;20041;-71
2022/01/29 01:56:26;;;;;;;11.60;6.70;;;;;;;1.82;86.67;99703.38;4174784;28;20485;-71
2022/01/29 01:58:26;;;;;;;10.55;5.65;;;;;;;1.79;86.52;99699.31;4166660;28;20088;-71
2022/01/29 02:00:28;;;;;;;12.13;5.30;;;;;;;1.80;86.86;99711.03;4171560;28;20124;-71
2022/01/29 02:02:28;;;;;;;9.25;4.75;;;;;;;1.86;87.07;99704.44;4164754;28;20046;-71
2022/01/29 02:04:28;;;;;;;8.02;5.25;;;;;;;1.86;86.92;99712.63;4165562;28;20183;-71
2022/01/29 02:06:29;;;;;;;14.65;5.90;;;;;;;1.79;87.10;99710.22;4170647;28;20080;-71
2022/01/29 02:08:30;;;;;;;10.57;5.18;;;;;;;1.84;86.61;99698.47;4169957;28;20045;-72
2022/01/29 02:10:31;;;;;;;9.73;5.32;;;;;;;1.88;87.09;99696.75;4168664;28;20036;-71
2022/01/29 02:12:34;;;;;;;9.02;5.82;;;;;;;1.91;87.06;99701.66;4166980;28;20044;-71
2022/01/29 02:14:35;;;;;;;10.02;5.63;;;;;;;1.92;86.83;99698.63;4166874;28;20448;-71
2022/01/29 02:16:35;;;;;;;8.95;6.43;;;;;;;1.84;87.07;99688.34;4166285;28;20041;-71
2022/01/29 02:18:37;;;;;;;13.40;6.03;;;;;;;1.81;87.51;99688.09;4167032;28;20136;-71
2022/01/29 02:20:38;;;;;;;10.93;5.30;;;;;;;1.79;87.83;99682.13;4166327;28;20192;-71
2022/01/29 02:22:40;;;;;;;10.52;5.32;;;;;;;1.76;88.06;99671.81;4166942;28;20084;-71
2022/01/29 02:24:40;;;;;;;10.48;5.85;;;;;;;1.77;88.25;99674.25;4166688;28;20040;-71
2022/01/29 02:26:41;;;;;;;12.50;5.32;;;;;;;1.75;88.48;99676.47;4166198;28;20496;-71
2022/01/29 02:28:42;;;;;;;7.88;5.82;;;;;;;1.81;88.81;99672.53;4166377;28;20082;-71
2022/01/29 02:30:45;;;;;;;9.88;6.18;;;;;;;1.81;88.97;99674.47;4166734;28;20359;-71
2022/01/29 02:32:45;;;;;;;12.95;6.75;;;;;;;1.90;88.58;99661.78;4166488;28;20048;-71
2022/01/29 02:34:46;;;;;;;12.55;6.13;;;;;;;1.95;87.90;99662.56;4165819;28;20389;-72
2022/01/29 02:36:47;;;;;;;11.13;6.22;;;;;;;1.99;88.07;99654.59;4165477;28;20045;-72
2022/01/29 02:38:47;;;;;;;11.35;6.47;;;;;;;1.96;88.01;99671.56;4166508;28;20132;-72
2022/01/29 02:40:54;;;;;;;10.48;6.53;;;;;;;1.98;87.98;99667.41;4166430;28;20467;-72
2022/01/29 02:42:56;;;;;;;9.15;6.40;;;;;;;1.95;88.50;99659.00;4166304;28;20041;-72
2022/01/29 02:44:56;;;;;;;10.73;6.10;;;;;;;1.93;88.14;99667.50;4166325;28;20053;-71
2022/01/29 02:47:13;;;;;;;10.48;6.43;;;;;;;1.94;88.59;99669.13;4165655;28;20140;-71
2022/01/29 02:49:20;;;;;;;13.55;6.72;;;;;;;1.96;88.18;99642.34;4166384;28;20083;-71
2022/01/29 02:51:20;;;;;;;11.20;6.43;;;;;;;2.00;88.67;99641.78;4166199;28;20516;-71
2022/01/29 02:53:20;;;;;;;11.40;6.05;;;;;;;2.01;88.57;99638.75;4166310;28;20045;-71
2022/01/29 02:55:21;;;;;;;12.68;7.22;;;;;;;1.99;88.50;99632.78;4166211;28;20157;-71
2022/01/29 02:57:21;;;;;;;10.50;6.32;;;;;;;1.96;88.09;99627.88;4165434;28;20047;-71
2022/01/29 02:59:21;;;;;;;10.38;6.57;;;;;;;2.02;88.71;99629.44;4165980;28;20273;-71
2022/01/29 03:01:22;;;;;;;15.25;7.13;;;;;;;1.98;89.20;99607.38;4166557;28;20103;-71
2022/01/29 03:03:22;;;;;;;12.88;7.35;;;;;;;2.07;89.03;99614.91;4166078;28;20048;-71
2022/01/29 03:05:23;;;;;;;9.60;6.72;;;;;;;2.07;88.54;99614.91;4165500;28;20080;-71
2022/01/29 03:07:23;;;;;;;12.65;6.93;;;;;;;2.04;88.38;99615.50;4165292;28;20503;-71
2022/01/29 03:09:24;;;;;;;11.55;6.28;;;;;;;2.02;88.78;99610.34;4166392;28;20152;-71
2022/01/29 03:11:24;;;;;;;11.40;6.82;;;;;;;2.00;88.53;99606.28;4166075;28;20045;-71
2022/01/29 03:13:24;;;;;;;10.80;6.78;;;;;;;2.06;88.40;99594.16;4166062;28;20044;-71
2022/01/29 03:15:25;;;;;;;12.30;6.88;;;;;;;2.01;88.88;99584.16;4165961;28;20045;-71
2022/01/29 03:17:26;;;;;;;14.10;6.97;;;;;;;2.00;88.88;99590.72;4165279;28;20360;-71
2022/01/29 03:19:26;;;;;;;14.23;7.05;;;;;;;1.98;89.32;99584.72;4165600;28;20054;-71
2022/01/29 03:21:27;;;;;;;10.43;6.45;;;;;;;1.96;89.24;99568.63;4166098;28;20414;-71
2022/01/29 03:23:27;;;;;;;10.07;6.15;;;;;;;1.98;89.32;99571.06;4165772;28;20148;-71
2022/01/29 03:25:27;;;;;;;18.05;7.15;;;;;;;2.00;89.61;99566.16;4165766;28;20549;-71
2022/01/29 03:27:28;;;;;;;13.25;6.65;;;;;;;2.02;89.58;99558.47;4165304;28;20371;-71
2022/01/29 03:29:28;;;;;;;11.27;6.85;;;;;;;2.01;89.55;99548.66;4165845;28;20049;-71
2022/01/29 03:31:29;;;;;;;13.43;6.25;;;;;;;2.01;89.36;99537.75;4165717;28;20044;-71
2022/01/29 03:33:29;;;;;;;10.60;6.32;;;;;;;2.06;89.53;99545.03;4165348;28;20103;-71
2022/01/29 03:35:29;;;;;;;13.13;6.22;;;;;;;2.13;89.20;99542.75;4164296;28;20065;-71
2022/01/29 03:37:30;;;;;;;9.93;5.97;;;;;;;2.05;88.92;99537.94;4164716;28;20460;-71
2022/01/29 03:39:31;;;;;;;11.40;6.03;;;;;;;2.11;89.43;99534.03;4165282;28;20500;-71
2022/01/29 03:41:31;;;;;;;8.50;5.25;;;;;;;2.22;88.32;99541.78;4167293;28;20392;-71
2022/01/29 03:43:35;;;;;;;10.63;6.03;;;;;;;2.20;88.20;99552.19;4165466;28;20099;-71
2022/01/29 03:45:36;;;;;;;11.80;6.10;;;;;;;2.20;88.52;99548.63;4165349;28;20652;-71
2022/01/29 03:47:36;;;;;;;14.20;6.53;;;;;;;2.13;89.19;99542.75;4163905;28;20069;-71
2022/01/29 03:49:36;;;;;;;10.27;5.82;;;;;;;2.10;88.94;99548.81;4165051;28;20036;-71
2022/01/29 03:51:37;;;;;;;12.77;6.30;;;;;;;2.16;88.25;99539.44;4165484;28;20091;-71
2022/01/29 03:53:37;;;;;;;8.50;5.38;;;;;;;2.24;88.28;99534.13;4165231;28;20071;-71
2022/01/29 03:55:38;;;;;;;10.15;5.63;;;;;;;2.30;88.18;99534.81;4164978;28;20125;-71
2022/01/29 03:57:38;;;;;;;9.50;5.85;;;;;;;2.26;88.15;99533.81;4164409;28;20053;-71
2022/01/29 03:59:38;;;;;;;10.75;6.03;;;;;;;2.23;88.34;99513.38;4165307;28;20037;-71
2022/01/29 04:01:39;;;;;;;10.10;5.93;;;;;;;2.32;88.31;99515.41;4165082;28;20425;-71
2022/01/29 04:03:39;;;;;;;11.93;6.10;;;;;;;2.36;88.12;99511.78;4164687;28;20091;-71
2022/01/29 04:05:40;;;;;;;12.27;6.10;;;;;;;2.36;88.36;99498.13;4165037;28;20064;-71
2022/01/29 04:07:41;;;;;;;12.90;6.57;;;;;;;2.36;88.45;99494.59;4164177;28;20044;-71
2022/01/29 04:09:47;;;;;;;12.05;6.40;;;;;;;2.32;88.76;99480.75;4167175;28;20063;-71
2022/01/29 04:11:48;;;;;;;11.57;6.30;;;;;;;2.33;88.98;99467.91;4165306;28;20459;-71
2022/01/29 04:13:49;;;;;;;9.27;5.60;;;;;;;2.35;89.64;99479.31;4164917;28;20120;-71
2022/01/29 04:15:49;;;;;;;11.50;6.10;;;;;;;2.35;89.91;99482.84;4164928;28;20037;-71
2022/01/29 04:17:49;;;;;;;10.32;6.32;;;;;;;2.32;89.79;99471.72;4163916;28;20076;-72
2022/01/29 04:19:50;;;;;;;13.90;5.53;;;;;;;2.26;90.35;99479.19;4164689;28;20053;-72
2022/01/29 04:21:50;;;;;;;11.25;6.55;;;;;;;2.31;90.72;99489.19;4164933;28;20055;-72
2022/01/29 04:23:50;;;;;;;11.25;6.55;;;;;;;2.32;91.03;99479.91;4164866;28;20043;-72
2022/01/29 04:25:52;;;;;;;11.77;6.65;;;;;;;2.32;91.16;99471.72;4168621;28;20406;-72
2022/01/29 04:27:53;;;;;;;13.40;6.53;;;;;;;2.38;90.96;99474.06;4173510;28;20048;-72
2022/01/29 04:29:56;;;;;;;9.00;5.68;;;;;;;2.44;90.63;99469.31;4174069;28;20516;-72
2022/01/29 04:33:57;;;;;;;12.77;6.80;;;;;;;2.41;91.04;99434.44;4173121;28;20066;-71
2022/01/29 04:36:00;;;;;;;12.88;6.38;;;;;;;2.35;91.72;99428.25;4173704;28;20053;-71
2022/01/29 04:38:01;;;;;;;14.05;5.85;;;;;;;2.32;92.41;99431.59;4172864;28;20061;-71
2022/01/29 04:40:01;;;;;;;11.32;6.38;;;;;;;2.33;91.90;99443.31;4173892;28;20036;-71
2022/01/29 04:42:02;;;;;;;11.52;6.45;;;;;;;2.30;92.59;99439.25;4173810;28;20313;-72
2022/01/29 04:44:02;;;;;;;16.90;6.55;;;;;;;2.29;93.09;99445.81;4173981;28;20094;-72
2022/01/29 04:46:03;;;;;;;11.80;6.38;;;;;;;2.31;93.66;99456.44;4173611;28;20033;-72
2022/01/29 04:48:03;;;;;;;11.25;6.13;;;;;;;2.32;93.12;99447.97;4173256;28;20037;-71
2022/01/29 04:50:05;;;;;;;11.88;6.45;;;;;;;2.28;93.13;99427.81;4173867;28;20624;-71
2022/01/29 04:52:06;;;;;;;11.18;6.63;;;;;;;2.24;94.50;99419.44;4173660;28;20395;-71
2022/01/29 04:54:06;;;;;;;12.45;6.15;;;;;;;2.21;94.97;99414.53;4174117;28;20065;-71
2022/01/29 04:56:07;;;;;;;9.32;5.60;;;;;;;2.28;94.77;99424.28;4173576;28;20243;-71
2022/01/29 04:58:07;;;;;;;8.77;5.47;;;;;;;2.29;95.27;99423.97;4172568;28;20032;-71
2022/01/29 05:00:20;;;;;;;9.68;6.45;;;;;;;2.29;94.81;99417.69;4173590;28;20690;-71
2022/01/29 05:02:20;;;;;;;9.23;5.95;;;;;;;2.35;94.78;99411.03;4173232;28;20057;-71
2022/01/29 05:04:21;;;;;;;12.32;5.80;;;;;;;2.36;94.63;99427.13;4173370;28;20434;-71
2022/01/29 05:06:21;;;;;;;10.40;6.30;;;;;;;2.30;95.40;99425.59;4172119;28;20041;-71
2022/01/29 05:08:22;;;;;;;11.57;6.72;;;;;;;2.36;94.57;99424.41;4173242;28;20128;-71
2022/01/29 05:10:22;;;;;;;12.30;6.32;;;;;;;2.30;95.22;99428.31;4173810;28;20449;-71
2022/01/29 05:12:28;;;;;;;15.63;6.85;;;;;;;2.30;95.76;99422.84;4173614;28;20048;-71
2022/01/29 05:14:52;;;;;;;12.68;6.28;;;;;;;2.28;95.87;99427.00;4173574;28;20091;-71
2022/01/29 05:28:27;;;;;;;11.27;5.30;;;;;;;2.42;94.77;99403.28;4172668;28;20052;-71
2022/01/29 05:30:27;;;;;;;9.85;5.60;;;;;;;2.40;93.82;99402.75;4173237;28;20227;-71
2022/01/29 05:32:27;;;;;;;11.23;5.70;;;;;;;2.39;95.21;99401.94;4173721;28;20040;-71
2022/01/29 05:34:28;;;;;;;10.23;4.85;;;;;;;2.38;95.82;99405.78;4173607;28;20120;-71
2022/01/29 05:36:28;;;;;;;10.13;5.10;;;;;;;2.38;95.61;99413.97;4173214;28;20044;-71
2022/01/29 05:38:29;;;;;;;10.85;5.25;;;;;;;2.38;96.13;99405.78;4173318;28;20045;-71
2022/01/29 05:40:29;;;;;;;8.85;5.50;;;;;;;2.40;95.18;99400.00;4173303;28;20057;-71
2022/01/29 05:42:30;;;;;;;10.10;5.18;;;;;;;2.39;96.26;99406.59;4173443;28;20073;-71
2022/01/29 05:44:30;;;;;;;8.50;5.40;;;;;;;2.36;96.52;99393.53;4173182;28;20457;-71
2022/01/29 05:46:30;;;;;;;9.60;5.13;;;;;;;2.46;96.42;99380.50;4173238;28;20090;-71
2022/01/29 05:48:31;;;;;;;6.75;4.40;;;;;;;2.47;96.38;99381.31;4171145;28;20130;-71
2022/01/29 05:50:31;;;;;;;9.60;4.50;;;;;;;2.45;96.59;99373.41;4173035;28;20065;-71
2022/01/29 05:52:32;;;;;;;9.00;4.93;;;;;;;2.46;96.06;99366.84;4173134;28;20328;-71
2022/01/29 05:54:33;;;;;;;8.25;5.00;;;;;;;2.42;96.44;99352.19;4173264;28;20040;-71
2022/01/29 05:56:33;;;;;;;7.45;4.45;;;;;;;2.43;96.12;99353.00;4172661;28;20048;-71
2022/01/29 05:58:34;;;;;;;8.40;4.72;;;;;;;2.46;96.08;99338.72;4173039;28;20041;-71
2022/01/29 06:00:34;;;;;;;7.55;4.63;;;;;;;2.45;95.42;99332.44;4173572;28;20053;-71
2022/01/29 06:02:35;;;;;;;9.50;4.78;;;;;;;2.44;96.21;99324.56;4173472;28;20448;-71
2022/01/29 06:04:35;;;;;;;9.02;4.82;;;;;;;2.46;96.46;99338.72;4173523;28;20098;-71
2022/01/29 06:06:35;;;;;;;9.07;4.40;;;;;;;2.46;96.77;99335.97;4172814;28;20123;-71
2022/01/29 06:08:36;;;;;;;9.55;4.60;;;;;;;2.46;95.87;99328.59;4173485;28;20069;-71
2022/01/29 06:10:36;;;;;;;9.02;4.55;;;;;;;2.51;95.76;99338.63;4174920;28;20118;-71
2022/01/29 06:12:36;;;;;;;8.52;4.70;;;;;;;2.53;95.64;99330.94;4176308;28;20493;-71
2022/01/29 06:14:37;;;;;;;8.60;4.30;;;;;;;2.51;95.68;99320.31;4175986;28;20049;-72
2022/01/29 06:16:37;;;;;;;8.35;4.20;;;;;;;2.54;95.08;99324.34;4175462;28;20056;-72
2022/01/29 06:18:38;;;;;;;7.95;4.18;;;;;;;2.57;94.95;99323.75;4176127;28;20544;-72
2022/01/29 06:20:40;;;;;;;9.25;4.60;;;;;;;2.54;95.53;99313.41;4176148;28;20105;-72
2022/01/29 06:22:43;;;;;;;8.87;4.77;;;;;;;2.56;95.31;99316.66;4176113;28;20048;-72
2022/01/29 06:24:43;;;;;;;7.50;3.88;;;;;;;2.60;95.49;99306.75;4176395;28;20172;-71
2022/01/29 06:26:44;;;;;;;11.35;4.55;;;;;;;2.61;95.31;99313.00;4175216;28;20064;-71
2022/01/29 06:28:44;;;;;;;8.93;4.57;;;;;;;2.61;95.26;99318.47;4175730;28;20536;-71
2022/01/29 06:30:44;;;;;;;9.07;4.55;;;;;;;2.58;95.62;99310.91;4176033;28;20045;-71
2022/01/29 06:32:45;;;;;;;9.27;4.78;;;;;;;2.56;95.66;99313.91;4175889;28;20517;-71
2022/01/29 06:34:45;;;;;;;9.90;5.47;;;;;;;2.62;95.19;99306.44;4175775;28;20052;-71
2022/01/29 06:36:45;;;;;;;9.32;5.40;;;;;;;2.62;95.02;99303.69;4174791;28;20106;-71
2022/01/29 06:38:46;;;;;;;7.05;4.63;;;;;;;2.63;95.19;99299.84;4176251;28;20053;-71
2022/01/29 06:40:46;;;;;;;9.77;4.90;;;;;;;2.61;95.76;99302.91;4174687;28;20493;-71
2022/01/29 06:42:46;;;;;;;9.55;4.40;;;;;;;2.60;95.45;99308.66;4171487;28;20708;-71
2022/01/29 06:44:47;;;;;;;8.75;4.80;;;;;;;2.66;95.85;99302.78;4175013;28;20041;-71
2022/01/29 06:46:47;;;;;;;8.75;5.10;;;;;;;2.62;95.23;99307.25;4174508;28;20914;-71
2022/01/29 06:48:47;;;;;;;9.32;4.90;;;;;;;2.65;95.22;99301.19;4175574;28;20481;-71
2022/01/29 06:50:48;;;;;;;9.52;4.57;;;;;;;2.73;95.20;99302.34;4175732;28;20040;-71
2022/01/29 06:52:49;;;;;;;9.15;4.97;;;;;;;2.75;94.18;99294.69;4175618;28;20044;-71
2022/01/29 06:54:49;;;;;;;10.45;4.97;;;;;;;2.67;95.20;99293.47;4175633;28;20407;-71
2022/01/29 06:56:49;;;;;;;9.63;5.13;;;;;;;2.67;94.74;99298.13;4174450;28;20060;-71
2022/01/29 06:58:49;;;;;;;10.90;5.28;;;;;;;2.64;95.70;99290.53;4175606;28;20064;-71
2022/01/29 07:00:50;;;;;;;8.75;4.88;;;;;;;2.65;95.61;99284.78;4175443;28;20052;-71
2022/01/29 07:02:50;;;;;;;8.38;5.18;;;;;;;2.64;95.76;99276.88;4175446;28;20564;-71
2022/01/29 07:04:51;;;;;;;8.05;4.50;;;;;;;2.66;95.33;99272.75;4175169;28;20416;-71
2022/01/29 07:06:51;;;;;;;6.95;4.03;;;;;;;2.66;94.36;99263.75;4174709;28;20075;-71
2022/01/29 07:08:52;;;;;;;9.70;5.65;;;;;;;2.67;95.47;99268.88;4175192;28;20060;-71
2022/01/29 07:10:53;;;;;;;8.85;4.50;;;;;;;2.69;95.16;99276.78;4175385;28;20155;-71
2022/01/29 07:12:53;;;;;;;9.05;4.97;;;;;;;2.70;95.09;99253.78;4174903;28;20111;-71
2022/01/29 07:14:53;;;;;;;5.90;4.00;;;;;;;2.80;94.26;99259.84;4175209;28;20142;-71
2022/01/29 07:16:53;;;;;;;7.35;4.75;;;;;;;2.78;94.54;99248.41;4174443;28;20493;-71
2022/01/29 07:18:54;;;;;;;8.73;4.80;;;;;;;2.80;94.16;99237.16;4175295;28;20127;-71
2022/01/29 07:20:54;;;;;;;7.18;4.50;;;;;;;2.87;93.88;99236.75;4173866;28;20402;-72
2022/01/29 07:22:54;;;;;;;8.02;4.20;;;;;;;2.83;94.04;99238.50;4174126;28;20107;-71
2022/01/29 07:24:55;;;;;;;7.63;4.40;;;;;;;2.79;94.13;99230.91;4166425;28;20412;-71
2022/01/29 07:26:55;;;;;;;11.38;5.78;;;;;;;2.85;93.70;99233.53;4172527;28;20128;-71
2022/01/29 07:28:55;;;;;;;7.38;4.85;;;;;;;2.80;94.99;99237.97;4169332;28;20059;-71
2022/01/29 07:30:56;;;;;;;7.88;4.43;;;;;;;2.85;94.88;99241.72;4169840;28;20576;-71
2022/01/29 07:32:57;;;;;;;8.73;5.30;;;;;;;2.84;94.76;99240.91;4170196;28;20048;-71
2022/01/29 07:34:58;;;;;;;5.95;4.20;;;;;;;2.90;94.59;99236.16;4170365;28;20522;-71
2022/01/29 07:36:59;;;;;;;8.43;4.90;;;;;;;2.91;94.31;99241.31;4169229;28;20500;-71
2022/01/29 07:38:59;;;;;;;8.93;4.70;;;;;;;2.93;94.13;99252.72;4170423;28;20395;-71
2022/01/29 07:41:00;;;;;;;7.15;4.88;;;;;;;2.94;93.82;99248.88;4169779;28;20128;-71
2022/01/29 07:43:00;;;;;;;8.85;4.85;;;;;;;2.93;94.01;99225.38;4170022;28;20561;-71
2022/01/29 07:45:00;;;;;;;9.23;4.80;;;;;;;2.93;94.03;99230.84;4170115;28;20228;-71
2022/01/29 07:47:01;;;;;;;9.82;5.10;;;;;;;2.97;93.55;99226.38;4168881;28;20505;-71
2022/01/29 07:49:01;;;;;;;9.23;5.38;;;;;;;2.97;93.50;99231.03;4170142;28;20073;-71
2022/01/29 07:51:02;;;;;;;7.88;4.60;;;;;;;3.00;93.78;99220.31;4169657;28;20602;-71
2022/01/29 07:53:02;;;;;;;7.95;4.70;;;;;;;3.01;93.50;99201.97;4169762;28;20080;-72
2022/01/29 07:55:07;;;;;;;9.38;5.38;;;;;;;3.06;93.29;99215.50;4169833;28;20045;-71
2022/01/29 07:57:07;;;;;;;7.22;4.90;;;;;;;3.06;93.64;99223.72;4168364;28;20141;-71
2022/01/29 07:59:08;;;;;;;11.23;5.55;;;;;;;3.12;93.66;99230.69;4168776;28;20080;-71
2022/01/29 08:01:08;;;;;;;11.00;5.65;;;;;;;3.06;93.75;99223.72;4168997;28;20128;-71
2022/01/29 08:03:08;;;;;;;10.70;6.40;;;;;;;3.09;94.41;99217.63;4169758;28;20095;-71
2022/01/29 08:05:10;;;;;;;9.57;5.85;;;;;;;3.03;94.40;99227.88;4169687;28;20175;-71
2022/01/29 08:07:10;;;;;;;9.88;5.05;;;;;;;3.05;94.69;99228.38;4168771;28;20073;-71
2022/01/29 08:09:10;;;;;;;7.50;5.10;;;;;;;3.05;94.66;99222.91;4168621;28;20045;-71
2022/01/29 08:11:12;;;;;;;8.25;4.68;;;;;;;3.09;94.42;99228.56;4168989;28;20045;-71
2022/01/29 08:13:12;;;;;;;7.43;5.05;;;;;;;3.14;94.28;99219.41;4169572;28;20146;-71
2022/01/29 08:15:12;;;;;;;7.32;5.05;;;;;;;3.23;94.00;99220.31;4170015;28;20493;-71
2022/01/29 08:17:13;;;;;;;7.78;4.63;;;;;;;3.23;93.67;99218.38;4168643;28;20116;-71
2022/01/29 08:19:13;;;;;;;9.23;4.68;;;;;;;3.22;93.34;99207.75;4169548;28;20487;-71
2022/01/29 08:21:15;;;;;;;8.43;5.15;;;;;;;3.25;93.49;99201.66;4169756;28;20664;-71
2022/01/29 08:23:16;;;;;;;8.30;4.57;;;;;;;3.34;93.11;99227.94;4169994;28;20091;-71
2022/01/29 08:25:17;;;;;;;6.60;4.53;;;;;;;3.37;93.22;99215.56;4168889;28;20427;-71
2022/01/29 08:27:18;;;;;;;8.60;4.90;;;;;;;3.39;92.71;99205.09;4168323;28;20045;-71
2022/01/29 08:29:18;;;;;;;7.60;4.60;;;;;;;3.40;92.95;99197.75;4169783;28;20897;-71
2022/01/29 08:31:18;;;;;;;8.18;4.60;;;;;;;3.41;92.87;99194.69;4164142;28;20086;-71
2022/01/29 08:33:19;;;;;;;6.85;4.45;;;;;;;3.36;93.48;99186.59;4183824;28;20052;-71
2022/01/29 08:35:19;;;;;;;6.15;4.15;;;;;;;3.40;93.09;99187.59;4185525;28;20648;-71
2022/01/29 08:37:19;;;;;;;5.78;3.92;;;;;;;3.43;93.19;99167.81;4181722;28;20048;-71
2022/01/29 08:39:20;;;;;;;5.82;3.95;;;;;;;3.46;93.45;99169.09;4185136;28;20048;-71
2022/01/29 08:41:20;;;;;;;5.63;3.88;;;;;;;3.54;93.04;99168.34;4187162;28;20073;-71
2022/01/29 08:43:22;;;;;;;5.60;3.28;;;;;;;3.59;92.65;99160.00;4186114;28;20044;-71
2022/01/29 08:45:22;;;;;;;6.10;3.90;;;;;;;3.64;92.78;99157.94;4185706;28;20519;-71
2022/01/29 08:47:22;;;;;;;5.68;3.83;;;;;;;3.59;93.06;99154.53;4184501;28;20052;-71
2022/01/29 08:49:23;;;;;;;4.28;3.05;;;;;;;3.60;92.90;99146.00;4186171;28;20046;-71
2022/01/29 08:51:23;;;;;;;5.50;3.55;;;;;;;3.63;93.04;99150.84;4186190;28;20139;-71
2022/01/29 08:53:23;;;;;;;5.97;3.92;;;;;;;3.61;92.72;99150.34;4185133;28;20594;-71
2022/01/29 08:55:24;;;;;;;5.70;3.28;;;;;;;3.62;92.45;99146.47;4185591;28;20059;-71
2022/01/29 08:57:25;;;;;;;5.18;3.13;;;;;;;3.63;93.25;99139.09;4184726;28;20551;-71
2022/01/29 08:59:25;;;;;;;4.45;3.10;;;;;;;3.67;92.91;99157.31;4185579;28;20053;-71
2022/01/29 09:01:25;;;;;;;3.83;2.80;;;;;;;3.66;92.52;99144.75;4185845;28;20136;-71
2022/01/29 09:03:26;;;;;;;4.93;2.70;;;;;;;3.65;92.91;99142.34;4185303;28;20374;-71
2022/01/29 09:05:26;;;;;;;3.97;2.38;;;;;;;3.66;92.75;99133.81;4185534;28;20060;-71
2022/01/29 09:07:27;;;;;;;3.92;2.25;;;;;;;3.70;92.25;99133.97;4184957;28;20530;-71
2022/01/29 09:09:28;;;;;;;3.30;2.30;;;;;;;3.71;92.30;99148.44;4185980;28;20070;-71
2022/01/29 09:11:28;;;;;;;2.97;2.20;;;;;;;3.81;91.06;99154.47;4186091;28;20044;-71
2022/01/29 09:13:28;;;;;;;2.50;2.00;;;;;;;3.86;91.33;99150.75;4186349;28;20103;-71
2022/01/29 09:15:29;;;;;;;3.95;2.30;;;;;;;3.82;91.56;99158.81;4186073;28;20048;-71
2022/01/29 09:17:29;;;;;;;3.35;2.28;;;;;;;3.85;91.15;99160.09;4184365;28;20139;-71
2022/01/29 09:19:30;;;;;;;3.58;2.40;;;;;;;3.91;90.58;99158.84;4186522;28;20436;-71
2022/01/29 09:21:30;;;;;;;3.08;2.30;;;;;;;3.85;91.39;99146.41;4185410;28;20052;-71
2022/01/29 09:23:31;;;;;;;2.65;1.90;;;;;;;3.93;91.03;99157.38;4185759;28;20040;-71
2022/01/29 09:25:32;;;;;;;3.25;1.73;;;;;;;3.93;91.35;99160.13;4185948;28;20386;-71
2022/01/29 09:27:32;;;;;;;3.55;1.90;;;;;;;3.92;91.27;99152.25;4183854;28;20748;-71
2022/01/29 09:29:32;;;;;;;2.97;1.92;;;;;;;3.92;91.55;99144.03;4185072;28;20382;-71
2022/01/29 09:31:33;;;;;;;2.42;1.50;;;;;;;3.95;91.50;99152.41;4186112;28;20052;-71
2022/01/29 09:33:33;;;;;;;2.22;1.77;;;;;;;3.97;91.14;99151.28;4185545;28;20052;-71
2022/01/29 09:35:34;;;;;;;2.10;1.60;;;;;;;3.99;90.78;99158.06;4185798;28;20101;-72
2022/01/29 09:37:34;;;;;;;2.83;1.80;;;;;;;4.05;90.34;99158.69;4180531;28;20055;-72
2022/01/29 09:39:34;;;;;;;1.88;1.60;;;;;;;4.10;89.67;99151.16;4185961;28;20045;-72
2022/01/29 09:41:37;;;;;;;2.03;1.70;;;;;;;4.15;89.27;99164.72;4186137;28;20198;-72
2022/01/29 09:43:37;;;;;;;2.38;1.58;;;;;;;4.13;89.53;99152.44;4186115;28;20052;-72
2022/01/29 09:45:38;;;;;;;3.22;1.60;;;;;;;4.09;89.29;99156.94;4177425;27;20056;-72
2022/01/29 09:47:41;;;;;;;2.58;1.77;;;;;;;4.11;89.65;99151.97;4195490;28;20044;-72